Time;durP1;ratioP1;P1;durP2;ratioP2;P2;SDS_P1;SDS_P2;PMS_P1;PMS_P2;Temp;Humidity;BMP_temperature;BMP_pressure;BME280_temperature;BME280_humidity;BME280_pressure;Samples;Min_cycle;Max_cycle;Signal;HPM_P1;HPM_P2
2021/12/06 00:02:16;;;;;;;;;;;;;;;15.70;33.75;93426.03;5015878;28;19913;-56
2021/12/06 00:04:43;;;;;;;;;;;;;;;15.05;35.22;93428.13;5016206;28;19913;-58
2021/12/06 00:07:12;;;;;;;;;;;;;;;16.41;32.72;93435.56;5015630;28;19913;-58
2021/12/06 00:09:39;;;;;;;;;;;;;;;15.21;34.72;93420.28;5015785;28;19925;-58
2021/12/06 00:12:06;;;;;;;;;;;;;;;14.85;35.58;93418.59;5015850;28;20331;-58
2021/12/06 00:14:35;;;;;;;;;;;;;;;15.33;34.53;93418.31;5015710;28;19913;-55
2021/12/06 00:17:03;;;;;;;;;;;;;;;15.05;35.05;93417.59;5015467;28;20335;-59
2021/12/06 00:19:30;;;;;;;;;;;;;;;14.91;35.10;93422.50;5015692;28;20209;-58
2021/12/06 00:21:57;;;;;;;;;;;;;;;15.41;34.43;93414.78;5015705;28;19925;-57
2021/12/06 00:24:25;;;;;;;;;;;;;;;16.21;33.12;93423.44;5015033;28;20324;-60
2021/12/06 00:26:51;;;;;;;;;;;;;;;16.30;32.54;93450.38;5011069;28;19971;-57
2021/12/06 00:29:19;;;;;;;;;;;;;;;16.27;32.85;93445.78;5015282;28;19917;-60
2021/12/06 00:31:46;;;;;;;;;;;;;;;15.14;34.48;93465.63;5016214;28;19928;-58
2021/12/06 00:34:16;;;;;;;;;;;;;;;15.09;34.86;93471.09;5011077;28;19945;-60
2021/12/06 00:36:52;;;;;;;;;;;;;;;15.00;35.06;93470.47;5029732;28;19965;-62
2021/12/06 00:39:20;;;;;;;;;;;;;;;15.13;34.70;93452.78;5015373;28;19920;-56
2021/12/06 00:41:47;;;;;;;;;;;;;;;15.37;34.18;93439.50;5014835;28;19928;-60
2021/12/06 00:44:14;;;;;;;;;;;;;;;16.56;31.82;93453.22;5013975;28;20252;-59
2021/12/06 00:46:41;;;;;;;;;;;;;;;15.22;34.36;93448.91;5011897;28;19933;-56
2021/12/06 00:49:08;;;;;;;;;;;;;;;15.58;34.05;93460.31;4997825;28;19918;-60
2021/12/06 00:51:36;;;;;;;;;;;;;;;15.92;33.18;93475.53;5011356;28;20252;-60
2021/12/06 00:54:03;;;;;;;;;;;;;;;15.41;34.24;93470.09;5010977;28;20236;-60
2021/12/06 00:56:30;;;;;;;;;;;;;;;15.32;33.97;93463.44;5016565;28;19914;-61
2021/12/06 00:58:57;;;;;;;;;;;;;;;15.45;33.96;93448.34;5015234;28;20344;-59
2021/12/06 01:01:24;;;;;;;;;;;;;;;15.86;32.90;93434.69;5046986;28;19920;-59
2021/12/06 01:03:51;;;;;;;;;;;;;;;16.40;31.60;93430.66;5013768;28;19913;-58
2021/12/06 01:06:18;;;;;;;;;;;;;;;15.14;34.38;93447.19;5015301;28;19921;-57
2021/12/06 01:08:45;;;;;;;;;;;;;;;14.62;34.59;93437.50;5010590;28;19913;-59
2021/12/06 01:11:12;;;;;;;;;;;;;;;14.64;35.81;93458.97;5004091;28;19925;-58
2021/12/06 01:13:39;;;;;;;;;;;;;;;15.00;34.53;93449.44;5027276;28;20218;-58
2021/12/06 01:16:07;;;;;;;;;;;;;;;15.24;34.41;93445.91;5027499;28;19918;-59
2021/12/06 01:18:34;;;;;;;;;;;;;;;15.56;33.54;93452.75;5038281;28;19920;-58
2021/12/06 01:21:16;;;;;;;;;;;;;;;15.30;34.32;93434.81;5005952;28;19920;-59
2021/12/06 01:23:57;;;;;;;;;;;;;;;15.22;34.71;93443.63;5013632;28;20233;-53
2021/12/06 01:32:12;;;;;;;;;;;;;;;15.67;33.96;93432.00;4988171;28;19925;-57
2021/12/06 01:40:11;;;;;;;;;;;;;;;14.72;35.61;93426.50;5032134;28;19914;-55
2021/12/06 01:42:38;;;;;;;;;;;;;;;14.51;35.83;93436.41;5010779;28;19917;-55
2021/12/06 01:45:06;;;;;;;;;;;;;;;15.38;34.17;93410.19;5010736;28;19929;-56
2021/12/06 01:47:37;;;;;;;;;;;;;;;16.23;32.63;93423.88;5013579;28;19914;-56
2021/12/06 01:50:08;;;;;;;;;;;;;;;16.38;32.79;93409.84;5039253;28;19918;-58
2021/12/06 01:52:59;;;;;;;;;;;;;;;16.51;32.75;93398.09;5014515;28;19924;-58
2021/12/06 01:55:27;;;;;;;;;;;;;;;15.82;33.27;93396.94;5014206;28;19925;-59
2021/12/06 01:57:55;;;;;;;;;;;;;;;15.19;34.41;93389.03;5005435;28;19924;-52
2021/12/06 02:00:31;;;;;;;;;;;;;;;15.54;34.08;93385.72;5032376;28;19913;-56
2021/12/06 02:03:04;;;;;;;;;;;;;;;15.24;34.39;93383.50;5018594;28;19917;-61
2021/12/06 02:05:36;;;;;;;;;;;;;;;15.03;35.03;93393.47;5017659;28;20232;-59
2021/12/06 02:08:05;;;;;;;;;;;;;;;14.89;35.64;93382.59;5050279;28;19917;-55
2021/12/06 02:10:33;;;;;;;;;;;;;;;14.98;35.48;93391.09;5017052;28;20296;-57
2021/12/06 02:13:03;;;;;;;;;;;;;;;14.56;35.03;93380.94;5049375;28;19920;-58
2021/12/06 02:18:12;;;;;;;;;;;;;;;15.65;33.83;93402.59;5049559;28;19924;-58
2021/12/06 02:20:50;;;;;;;;;;;;;;;15.48;33.39;93398.38;5017964;28;19913;-59
2021/12/06 02:23:18;;;;;;;;;;;;;;;15.49;33.71;93409.69;5016888;28;19914;-58
2021/12/06 02:25:45;;;;;;;;;;;;;;;16.58;31.61;93406.13;5015944;28;19920;-60
2021/12/06 02:28:12;;;;;;;;;;;;;;;16.34;32.16;93416.94;5029489;28;19920;-56
2021/12/06 02:30:39;;;;;;;;;;;;;;;16.60;31.41;93398.63;5032723;28;19925;-58
2021/12/06 02:33:06;;;;;;;;;;;;;;;15.51;33.04;93383.78;5001799;28;19917;-60
2021/12/06 02:35:33;;;;;;;;;;;;;;;16.54;31.65;93386.06;5017546;28;19913;-60
2021/12/06 02:38:06;;;;;;;;;;;;;;;16.09;32.60;93379.47;5016543;28;19920;-61
2021/12/06 02:40:35;;;;;;;;;;;;;;;15.42;32.60;93379.44;5016597;28;19920;-59
2021/12/06 02:43:05;;;;;;;;;;;;;;;14.34;35.11;93381.44;5003165;28;19921;-59
2021/12/06 02:45:32;;;;;;;;;;;;;;;15.33;32.86;93376.19;5043251;28;20312;-57
2021/12/06 02:48:00;;;;;;;;;;;;;;;14.93;33.84;93378.97;5017592;28;19913;-58
2021/12/06 02:50:34;;;;;;;;;;;;;;;14.55;35.06;93378.66;5049263;28;19921;-59
2021/12/06 02:53:01;;;;;;;;;;;;;;;15.34;33.79;93388.25;5017244;28;19913;-60
2021/12/06 02:57:58;;;;;;;;;;;;;;;14.72;35.07;93394.16;5049097;28;19917;-58
2021/12/06 03:00:25;;;;;;;;;;;;;;;14.99;34.84;93385.50;5016391;28;19913;-67
2021/12/06 03:02:52;;;;;;;;;;;;;;;15.01;34.28;93377.25;5017852;28;19913;-62
2021/12/06 03:05:19;;;;;;;;;;;;;;;14.59;35.11;93369.78;5015045;28;19913;-62
2021/12/06 03:07:52;;;;;;;;;;;;;;;14.81;35.01;93382.38;5016059;28;19921;-62
2021/12/06 03:10:19;;;;;;;;;;;;;;;15.77;33.73;93378.78;5017183;28;20282;-58
2021/12/06 03:12:46;;;;;;;;;;;;;;;16.89;31.44;93383.38;5012352;28;20297;-60
2021/12/06 03:15:16;;;;;;;;;;;;;;;16.27;32.69;93374.59;5001155;28;20206;-63
2021/12/06 03:17:45;;;;;;;;;;;;;;;15.09;35.35;93381.59;5014512;28;20252;-63
2021/12/06 03:20:14;;;;;;;;;;;;;;;15.19;34.72;93370.59;5005125;28;19921;-65
2021/12/06 03:22:42;;;;;;;;;;;;;;;16.59;32.51;93377.88;5014425;28;19924;-61
2021/12/06 03:25:11;;;;;;;;;;;;;;;15.24;34.58;93378.22;5017698;28;20197;-59
2021/12/06 03:27:38;;;;;;;;;;;;;;;15.95;33.63;93385.22;5015827;28;19947;-63
2021/12/06 03:30:06;;;;;;;;;;;;;;;16.12;33.83;93376.16;5015702;28;20201;-65
2021/12/06 03:32:33;;;;;;;;;;;;;;;15.41;34.97;93371.88;5015543;28;19989;-58
2021/12/06 03:35:00;;;;;;;;;;;;;;;16.07;33.73;93373.03;5015667;28;19913;-62
2021/12/06 03:37:28;;;;;;;;;;;;;;;16.61;32.40;93368.50;5015692;28;20268;-58
2021/12/06 03:39:55;;;;;;;;;;;;;;;15.33;34.84;93360.41;5015476;28;19913;-59
2021/12/06 03:42:27;;;;;;;;;;;;;;;15.00;35.41;93352.03;5011608;28;19913;-64
2021/12/06 03:44:54;;;;;;;;;;;;;;;16.08;33.81;93371.91;4995867;28;19918;-66
2021/12/06 03:47:27;;;;;;;;;;;;;;;16.59;33.02;93376.00;4995930;28;19913;-58
2021/12/06 03:49:54;;;;;;;;;;;;;;;15.57;34.63;93361.34;5015845;28;19920;-61
2021/12/06 03:52:21;;;;;;;;;;;;;;;16.11;33.79;93376.50;5048215;28;19948;-66
2021/12/06 03:54:49;;;;;;;;;;;;;;;16.26;33.81;93368.56;5015598;28;19917;-58
2021/12/06 03:57:18;;;;;;;;;;;;;;;15.91;34.06;93358.03;5015245;28;19914;-65
2021/12/06 03:59:46;;;;;;;;;;;;;;;16.25;33.72;93366.25;5014638;28;19924;-62
2021/12/06 04:02:14;;;;;;;;;;;;;;;16.06;34.04;93364.34;5014769;28;19917;-62
2021/12/06 04:04:41;;;;;;;;;;;;;;;16.31;33.81;93360.38;5015232;28;19921;-65
2021/12/06 04:07:09;;;;;;;;;;;;;;;16.34;33.58;93372.09;5015053;28;19921;-56
2021/12/06 04:09:38;;;;;;;;;;;;;;;17.88;30.97;93358.66;5002086;28;19918;-58
2021/12/06 04:12:06;;;;;;;;;;;;;;;16.94;32.14;93356.72;5006433;28;19925;-60
2021/12/06 04:14:35;;;;;;;;;;;;;;;17.04;32.37;93369.34;5047811;28;19920;-62
2021/12/06 04:17:02;;;;;;;;;;;;;;;18.11;30.87;93363.16;5014870;28;20332;-62
2021/12/06 04:19:30;;;;;;;;;;;;;;;17.00;32.16;93376.44;5014083;28;19914;-65
2021/12/06 04:21:57;;;;;;;;;;;;;;;16.06;33.75;93363.59;5014269;28;19928;-63
2021/12/06 04:24:24;;;;;;;;;;;;;;;16.28;34.13;93381.41;5014473;28;19924;-63
2021/12/06 04:26:51;;;;;;;;;;;;;;;16.59;33.16;93370.72;5015598;28;19913;-59
2021/12/06 04:29:19;;;;;;;;;;;;;;;15.89;34.52;93381.31;5010724;28;19929;-62
2021/12/06 04:31:48;;;;;;;;;;;;;;;16.87;32.88;93381.09;5002657;28;19924;-62
2021/12/06 04:34:16;;;;;;;;;;;;;;;15.82;34.51;93367.19;5014466;28;19920;-62
2021/12/06 04:36:44;;;;;;;;;;;;;;;15.61;35.48;93375.38;5030679;28;19921;-62
2021/12/06 04:39:12;;;;;;;;;;;;;;;15.69;35.50;93361.28;5014813;28;19913;-59
2021/12/06 04:41:40;;;;;;;;;;;;;;;16.43;34.24;93372.69;5047189;28;19924;-60
2021/12/06 04:44:07;;;;;;;;;;;;;;;16.40;34.33;93368.09;5014168;28;19932;-53
2021/12/06 04:46:36;;;;;;;;;;;;;;;15.58;35.49;93376.03;5014392;28;19917;-61
2021/12/06 04:49:04;;;;;;;;;;;;;;;16.82;33.33;93372.69;5014533;28;19917;-61
2021/12/06 04:51:32;;;;;;;;;;;;;;;16.77;33.43;93365.06;5013715;28;19925;-66
2021/12/06 04:53:59;;;;;;;;;;;;;;;16.42;34.41;93365.13;5013648;28;20213;-59
2021/12/06 04:56:37;;;;;;;;;;;;;;;17.64;31.90;93364.31;5009873;28;19913;-68
2021/12/06 04:59:16;;;;;;;;;;;;;;;17.19;32.76;93381.69;5036329;28;20339;-61
2021/12/06 05:01:46;;;;;;;;;;;;;;;18.79;29.85;93378.03;5009042;28;19944;-65
2021/12/06 05:04:15;;;;;;;;;;;;;;;20.06;28.02;93375.06;4994483;28;20608;-67
2021/12/06 05:06:44;;;;;;;;;;;;;;;18.33;30.58;93378.19;4994537;28;19921;-63
2021/12/06 05:09:22;;;;;;;;;;;;;;;16.48;33.69;93359.22;5027510;28;20305;-61
2021/12/06 05:11:49;;;;;;;;;;;;;;;16.61;33.41;93360.59;5034119;28;19928;-58
2021/12/06 05:14:17;;;;;;;;;;;;;;;16.42;34.23;93371.16;5007322;28;19913;-63
2021/12/06 05:16:44;;;;;;;;;;;;;;;17.43;32.48;93377.16;5013949;28;19921;-61
2021/12/06 05:19:11;;;;;;;;;;;;;;;18.51;30.32;93377.66;5039788;28;19917;-42
2021/12/06 05:21:40;;;;;;;;;;;;;;;16.67;33.37;93386.75;5046171;28;19917;-48
2021/12/06 05:24:07;;;;;;;;;;;;;;;18.73;29.98;93382.09;5013203;28;19913;-44
2021/12/06 05:26:35;;;;;;;;;;;;;;;17.88;31.47;93400.22;5010591;28;19918;-47
2021/12/06 05:29:04;;;;;;;;;;;;;;;16.96;33.22;93394.09;5006429;28;19920;-45
2021/12/06 05:31:33;;;;;;;;;;;;;;;16.42;34.10;93379.06;5018737;28;20320;-49
2021/12/06 05:34:07;;;;;;;;;;;;;;;16.29;34.56;93393.47;5009938;28;19925;-50
2021/12/06 05:36:34;;;;;;;;;;;;;;;17.79;32.20;93381.19;5018846;28;19913;-50
2021/12/06 05:39:01;;;;;;;;;;;;;;;18.75;30.16;93367.41;4999587;28;19918;-53
2021/12/06 05:41:28;;;;;;;;;;;;;;;17.71;31.90;93388.25;5005954;28;19917;-49
2021/12/06 05:43:55;;;;;;;;;;;;;;;17.22;33.16;93396.84;5013286;28;20313;-55
2021/12/06 05:46:22;;;;;;;;;;;;;;;17.76;31.74;93397.75;5018600;28;19917;-55
2021/12/06 05:48:49;;;;;;;;;;;;;;;16.60;33.85;93387.31;5017441;28;19924;-60
2021/12/06 05:51:15;;;;;;;;;;;;;;;17.00;33.17;93379.09;5000170;28;19926;-53
2021/12/06 05:53:42;;;;;;;;;;;;;;;17.26;32.89;93376.53;5017852;28;19936;-55
2021/12/06 05:56:09;;;;;;;;;;;;;;;16.82;33.70;93370.81;5017310;28;19914;-51
2021/12/06 05:58:36;;;;;;;;;;;;;;;17.71;31.96;93375.03;5018524;28;19924;-51
2021/12/06 06:01:03;;;;;;;;;;;;;;;17.45;32.43;93381.00;5018669;28;19913;-55
2021/12/06 06:03:30;;;;;;;;;;;;;;;19.12;29.33;93368.53;5004428;28;19921;-55
2021/12/06 06:05:57;;;;;;;;;;;;;;;18.00;31.57;93386.81;5015404;28;20248;-55
2021/12/06 06:08:25;;;;;;;;;;;;;;;19.23;29.69;93396.66;5018259;28;19924;-56
2021/12/06 06:10:52;;;;;;;;;;;;;;;16.74;33.80;93402.72;4999495;28;19929;-55
2021/12/06 06:13:19;;;;;;;;;;;;;;;17.98;31.46;93399.63;4999701;28;19918;-58
2021/12/06 06:15:47;;;;;;;;;;;;;;;17.70;32.22;93397.31;5013434;28;19972;-55
2021/12/06 06:18:14;;;;;;;;;;;;;;;16.72;33.73;93400.44;5018359;28;19920;-55
2021/12/06 06:20:40;;;;;;;;;;;;;;;16.18;35.54;93392.50;5001950;28;19913;-51
2021/12/06 06:23:07;;;;;;;;;;;;;;;17.05;34.33;93397.28;5014562;28;20339;-55
2021/12/06 06:25:34;;;;;;;;;;;;;;;17.48;33.16;93398.81;5009738;28;20293;-54
2021/12/06 06:28:02;;;;;;;;;;;;;;;17.64;33.15;93390.72;4998722;28;19920;-57
2021/12/06 06:30:28;;;;;;;;;;;;;;;18.03;32.60;93388.75;4999222;28;19914;-55
2021/12/06 06:32:55;;;;;;;;;;;;;;;17.08;34.54;93380.72;5012113;28;19918;-55
2021/12/06 06:35:23;;;;;;;;;;;;;;;16.57;35.64;93404.63;5010702;28;19917;-64
2021/12/06 06:37:50;;;;;;;;;;;;;;;16.82;35.15;93410.41;4998218;28;20264;-54
2021/12/06 06:40:17;;;;;;;;;;;;;;;16.92;35.26;93420.44;4997380;28;19921;-54
2021/12/06 06:42:44;;;;;;;;;;;;;;;16.28;36.42;93420.94;5010265;28;19918;-55
2021/12/06 06:45:12;;;;;;;;;;;;;;;16.51;36.47;93418.44;5017497;28;19924;-49
2021/12/06 06:47:39;;;;;;;;;;;;;;;16.92;35.63;93407.22;5017475;28;19917;-52
2021/12/06 06:50:06;;;;;;;;;;;;;;;17.05;35.14;93436.88;5011642;28;19920;-52
2021/12/06 06:52:33;;;;;;;;;;;;;;;16.81;35.97;93434.53;5007777;28;19921;-58
2021/12/06 06:55:03;;;;;;;;;;;;;;;17.01;34.90;93428.13;5015940;28;19918;-55
2021/12/06 06:57:30;;;;;;;;;;;;;;;17.69;35.01;93424.81;5016788;28;19921;-57
2021/12/06 06:59:57;;;;;;;;;;;;;;;17.69;35.29;93427.47;5017141;28;19914;-55
2021/12/06 07:02:24;;;;;;;;;;;;;;;17.53;35.19;93422.28;5008983;28;19918;-56
2021/12/06 07:04:51;;;;;;;;;;;;;;;17.61;35.12;93411.81;4997402;28;19921;-55
2021/12/06 07:07:18;;;;;;;;;;;;;;;18.11;34.83;93419.44;5010775;28;19944;-57
2021/12/06 07:09:45;;;;;;;;;;;;;;;17.49;34.83;93421.47;5024721;23;19933;-56
2021/12/06 07:12:16;;;;;;;;;;;;;;;17.95;34.67;93424.09;5030492;28;19924;-55
2021/12/06 07:14:45;;;;;;;;;;;;;;;17.56;35.46;93431.38;5036972;28;19913;-55
2021/12/06 07:17:12;;;;;;;;;;;;;;;17.90;34.66;93410.41;5035776;28;20299;-55
2021/12/06 07:19:39;;;;;;;;;;;;;;;17.21;35.53;93397.97;5035702;28;19924;-47
2021/12/06 07:22:06;;;;;;;;;;;;;;;17.90;34.42;93403.25;5036356;28;20196;-53
2021/12/06 07:24:33;;;;;;;;;;;;;;;17.62;35.28;93406.19;5036827;28;20291;-48
2021/12/06 07:27:00;;;;;;;;;;;;;;;18.97;33.20;93404.69;5022669;28;19921;-55
2021/12/06 07:29:27;;;;;;;;;;;;;;;18.76;34.03;93403.34;5016906;28;20216;-56
2021/12/06 07:31:54;;;;;;;;;;;;;;;19.90;31.47;93427.59;5021715;28;19921;-53
2021/12/06 07:34:21;;;;;;;;;;;;;;;18.33;33.01;93420.53;5016887;28;19921;-55
2021/12/06 07:36:47;;;;;;;;;;;;;;;18.89;32.02;93411.81;5016911;28;19913;-58
2021/12/06 07:39:14;;;;;;;;;;;;;;;17.82;33.66;93412.97;5017694;28;19932;-54
2021/12/06 07:41:41;;;;;;;;;;;;;;;18.36;33.31;93422.44;5025890;28;19921;-55
2021/12/06 07:44:09;;;;;;;;;;;;;;;17.76;33.39;93414.38;5036462;28;19920;-54
2021/12/06 07:46:35;;;;;;;;;;;;;;;17.95;33.92;93431.28;5016975;28;19913;-53
2021/12/06 07:49:02;;;;;;;;;;;;;;;17.25;35.25;93454.25;5016266;28;19920;-55
2021/12/06 07:51:29;;;;;;;;;;;;;;;17.43;34.65;93406.22;5031239;28;19921;-55
2021/12/06 07:53:57;;;;;;;;;;;;;;;18.32;32.96;93424.28;5020061;28;19917;-54
2021/12/06 07:56:24;;;;;;;;;;;;;;;17.21;35.33;93405.88;5016434;28;19930;-55
2021/12/06 07:58:51;;;;;;;;;;;;;;;19.69;30.36;93404.31;5016173;28;20228;-50
2021/12/06 08:01:18;;;;;;;;;;;;;;;17.56;34.12;93413.66;5021501;28;19917;-55
2021/12/06 08:03:46;;;;;;;;;;;;;;;18.09;33.05;93411.09;5035062;28;19917;-55
2021/12/06 08:06:12;;;;;;;;;;;;;;;17.50;34.65;93383.34;5021431;28;19917;-50
2021/12/06 08:08:40;;;;;;;;;;;;;;;17.72;33.77;93391.66;5021681;28;19921;-51
2021/12/06 08:11:10;;;;;;;;;;;;;;;19.79;30.35;93405.53;5025413;28;19944;-45
2021/12/06 08:13:38;;;;;;;;;;;;;;;19.87;29.51;93423.03;5021199;28;20607;-48
2021/12/06 08:16:09;;;;;;;;;;;;;;;18.37;32.46;93417.91;5015948;28;19924;-49
2021/12/06 08:18:36;;;;;;;;;;;;;;;17.51;34.71;93413.19;5015744;28;19924;-53
2021/12/06 08:21:03;;;;;;;;;;;;;;;17.72;34.00;93407.53;5018128;28;20327;-55
2021/12/06 08:23:31;;;;;;;;;;;;;;;17.72;34.41;93402.22;5028097;28;20303;-52
2021/12/06 08:25:58;;;;;;;;;;;;;;;18.76;32.87;93400.69;5015794;28;19921;-51
2021/12/06 08:28:25;;;;;;;;;;;;;;;17.77;34.82;93407.97;5014615;28;19914;-56
2021/12/06 08:30:52;;;;;;;;;;;;;;;17.39;35.56;93411.47;5016438;28;19925;-54
2021/12/06 08:33:19;;;;;;;;;;;;;;;17.75;35.05;93404.94;5033968;28;19917;-55
2021/12/06 08:35:47;;;;;;;;;;;;;;;18.20;34.87;93398.03;5034213;28;19928;-58
2021/12/06 08:38:14;;;;;;;;;;;;;;;18.77;32.89;93390.88;5035202;28;19917;-57
2021/12/06 08:40:42;;;;;;;;;;;;;;;17.86;35.80;93397.16;5034333;28;19925;-53
2021/12/06 08:43:09;;;;;;;;;;;;;;;17.67;35.80;93392.69;5034396;28;19924;-54
2021/12/06 08:45:36;;;;;;;;;;;;;;;17.39;35.88;93400.13;5035086;28;19924;-55
2021/12/06 08:48:03;;;;;;;;;;;;;;;17.88;35.42;93405.50;5015856;28;19921;-52
2021/12/06 08:50:30;;;;;;;;;;;;;;;17.83;35.66;93397.88;5015109;28;19914;-55
2021/12/06 08:52:57;;;;;;;;;;;;;;;18.18;34.17;93402.91;5029357;28;19924;-58
2021/12/06 08:55:24;;;;;;;;;;;;;;;17.49;35.33;93405.59;5034878;28;19917;-56
2021/12/06 08:57:51;;;;;;;;;;;;;;;17.71;34.93;93412.03;5035038;28;19944;-46
2021/12/06 09:00:19;;;;;;;;;;;;;;;18.18;33.92;93390.44;5034736;28;19913;-51
2021/12/06 09:02:46;;;;;;;;;;;;;;;19.02;33.36;93391.91;5033161;28;19913;-50
2021/12/06 09:05:13;;;;;;;;;;;;;;;18.59;33.24;93403.09;5018129;28;19913;-67
2021/12/06 09:07:40;;;;;;;;;;;;;;;19.06;32.95;93403.31;5015135;28;20248;-56
2021/12/06 09:10:09;;;;;;;;;;;;;;;20.42;30.00;93394.63;5022506;28;20315;-49
2021/12/06 09:12:37;;;;;;;;;;;;;;;18.35;34.18;93397.13;5026219;28;19918;-47
2021/12/06 09:15:06;;;;;;;;;;;;;;;18.63;33.43;93385.41;5015284;28;19917;-56
2021/12/06 09:17:33;;;;;;;;;;;;;;;18.80;34.05;93382.22;5015328;28;19913;-56
2021/12/06 09:20:00;;;;;;;;;;;;;;;19.25;32.41;93398.94;5015194;28;19920;-54
2021/12/06 09:22:27;;;;;;;;;;;;;;;18.29;34.38;93382.69;5027462;28;19921;-55
2021/12/06 09:24:54;;;;;;;;;;;;;;;19.33;32.02;93366.09;5035029;28;19913;-55
2021/12/06 09:27:21;;;;;;;;;;;;;;;19.59;32.76;93371.28;5023822;28;20379;-58
2021/12/06 09:29:48;;;;;;;;;;;;;;;18.91;32.56;93379.66;5015192;28;19948;-56
2021/12/06 09:32:15;;;;;;;;;;;;;;;20.01;30.98;93386.00;5028443;28;19931;-53
2021/12/06 09:34:44;;;;;;;;;;;;;;;21.00;28.76;93390.31;5021543;28;19929;-64
2021/12/06 09:37:11;;;;;;;;;;;;;;;19.03;32.18;93366.19;5024447;28;19913;-52
2021/12/06 09:39:38;;;;;;;;;;;;;;;18.96;32.78;93366.09;5023201;28;19921;-52
2021/12/06 09:42:05;;;;;;;;;;;;;;;19.20;32.64;93356.88;5015626;28;20231;-54
2021/12/06 09:44:32;;;;;;;;;;;;;;;18.70;32.92;93366.94;5032781;28;19928;-52
2021/12/06 09:46:59;;;;;;;;;;;;;;;18.27;33.05;93368.28;5035390;28;20240;-56
2021/12/06 09:49:26;;;;;;;;;;;;;;;18.94;32.26;93358.53;5026945;28;19921;-54
2021/12/06 09:51:57;;;;;;;;;;;;;;;18.46;32.98;93354.91;5014949;28;19921;-56
2021/12/06 09:54:26;;;;;;;;;;;;;;;18.07;33.14;93334.00;5031431;28;19920;-54
2021/12/06 09:56:53;;;;;;;;;;;;;;;18.22;33.33;93342.91;5034706;28;19924;-55
2021/12/06 09:59:23;;;;;;;;;;;;;;;20.06;30.95;93339.81;5034171;28;19917;-54
2021/12/06 10:01:52;;;;;;;;;;;;;;;18.84;32.48;93332.69;5034749;28;19920;-54
2021/12/06 10:04:19;;;;;;;;;;;;;;;18.65;33.04;93322.28;5034458;28;19924;-54
2021/12/06 10:06:46;;;;;;;;;;;;;;;18.54;32.95;93313.44;5034728;28;19913;-54
2021/12/06 10:09:14;;;;;;;;;;;;;;;18.51;33.36;93308.88;5033480;28;19928;-54
2021/12/06 10:11:41;;;;;;;;;;;;;;;18.95;32.23;93299.13;5034288;28;19924;-54
2021/12/06 10:14:08;;;;;;;;;;;;;;;18.82;32.11;93307.72;5033246;28;19917;-55
2021/12/06 10:16:35;;;;;;;;;;;;;;;18.44;32.71;93315.56;5037862;28;19913;-57
2021/12/06 10:19:02;;;;;;;;;;;;;;;19.61;30.70;93316.00;5037556;28;19924;-56
2021/12/06 10:21:29;;;;;;;;;;;;;;;18.83;31.62;93304.69;5038097;28;19917;-56
2021/12/06 10:23:56;;;;;;;;;;;;;;;20.21;29.97;93299.69;5028554;28;19913;-54
2021/12/06 10:26:26;;;;;;;;;;;;;;;19.94;30.04;93301.06;5018760;28;19913;-53
2021/12/06 10:29:00;;;;;;;;;;;;;;;21.09;27.95;93287.13;5028487;28;19913;-54
2021/12/06 10:31:29;;;;;;;;;;;;;;;20.44;29.54;93280.13;5030267;28;19943;-53
2021/12/06 10:33:56;;;;;;;;;;;;;;;19.59;30.87;93272.44;5028315;28;19932;-56
2021/12/06 10:36:24;;;;;;;;;;;;;;;19.56;30.93;93266.00;5026726;28;19913;-55
2021/12/06 10:38:53;;;;;;;;;;;;;;;21.02;28.82;93273.81;5027578;28;19920;-53
2021/12/06 10:41:25;;;;;;;;;;;;;;;22.32;26.06;93274.88;5022385;28;19917;-52
2021/12/06 10:44:12;;;;;;;;;;;;;;;20.10;29.76;93271.63;5036005;28;19917;-55
2021/12/06 10:46:46;;;;;;;;;;;;;;;19.95;30.96;93270.75;5028171;28;20225;-55
2021/12/06 10:49:14;;;;;;;;;;;;;;;19.24;31.33;93265.72;5028094;28;19913;-56
2021/12/06 10:51:41;;;;;;;;;;;;;;;18.93;32.12;93272.25;5017345;28;19922;-56
2021/12/06 10:54:16;;;;;;;;;;;;;;;19.36;32.11;93267.31;5029525;28;19917;-56
2021/12/06 10:56:47;;;;;;;;;;;;;;;19.18;32.77;93277.00;5029229;28;19920;-54
2021/12/06 10:59:21;;;;;;;;;;;;;;;19.18;31.75;93295.56;5029615;28;19912;-54
2021/12/06 11:01:50;;;;;;;;;;;;;;;19.91;31.17;93288.56;5036998;28;19913;-55
2021/12/06 11:04:18;;;;;;;;;;;;;;;19.56;32.34;93287.19;5036748;28;19913;-55
2021/12/06 11:06:47;;;;;;;;;;;;;;;19.32;32.53;93288.50;5036870;28;19924;-55
2021/12/06 11:09:16;;;;;;;;;;;;;;;20.85;29.12;93284.03;5028369;28;19931;-53
2021/12/06 11:11:43;;;;;;;;;;;;;;;20.91;28.91;93282.53;5019583;28;19948;-54
2021/12/06 11:14:14;;;;;;;;;;;;;;;20.55;29.77;93284.31;5028175;28;20208;-56
2021/12/06 11:16:42;;;;;;;;;;;;;;;20.53;29.94;93285.81;5037334;28;19917;-55
2021/12/06 11:19:10;;;;;;;;;;;;;;;19.16;32.64;93273.97;5035358;28;19912;-55
2021/12/06 11:21:47;;;;;;;;;;;;;;;19.67;31.76;93292.56;5032468;28;19925;-54
2021/12/06 11:24:15;;;;;;;;;;;;;;;20.03;30.46;93277.63;5029257;28;19920;-55
2021/12/06 11:26:57;;;;;;;;;;;;;;;19.70;32.14;93276.69;5036289;28;19928;-55
2021/12/06 11:29:43;;;;;;;;;;;;;;;19.58;32.15;93273.59;5036544;28;19913;-54
2021/12/06 11:32:20;;;;;;;;;;;;;;;20.17;30.60;93276.94;5036593;28;19917;-55
2021/12/06 11:34:49;;;;;;;;;;;;;;;20.14;30.99;93267.84;5036437;28;19917;-54
2021/12/06 11:37:17;;;;;;;;;;;;;;;20.94;29.16;93255.22;5025730;28;19924;-57
2021/12/06 11:39:45;;;;;;;;;;;;;;;20.48;30.05;93254.34;5031388;28;20299;-51
2021/12/06 11:42:12;;;;;;;;;;;;;;;21.49;27.93;93260.19;5033107;28;19917;-53
2021/12/06 11:44:42;;;;;;;;;;;;;;;21.21;28.56;93258.28;5031540;28;19913;-57
2021/12/06 11:47:10;;;;;;;;;;;;;;;21.03;28.91;93246.09;5036260;28;19913;-52
2021/12/06 11:49:39;;;;;;;;;;;;;;;20.40;30.69;93234.19;5035942;28;19920;-56
2021/12/06 11:52:08;;;;;;;;;;;;;;;21.33;28.15;93243.88;5027212;28;19928;-53
2021/12/06 11:54:36;;;;;;;;;;;;;;;20.60;29.88;93246.03;5025466;28;19922;-59
2021/12/06 11:57:09;;;;;;;;;;;;;;;19.78;30.93;93247.53;5024697;28;19928;-47
2021/12/06 11:59:44;;;;;;;;;;;;;;;20.29;30.55;93256.13;5026493;28;19914;-54
2021/12/06 12:02:11;;;;;;;;;;;;;;;20.11;31.18;93247.38;5022350;28;19992;-49
2021/12/06 12:04:38;;;;;;;;;;;;;;;20.15;31.44;93248.13;5034755;28;19920;-55
2021/12/06 12:07:07;;;;;;;;;;;;;;;20.50;31.23;93241.44;5035774;28;19924;-54
2021/12/06 12:09:35;;;;;;;;;;;;;;;20.01;31.05;93232.13;5028003;28;19917;-54
2021/12/06 12:12:20;;;;;;;;;;;;;;;21.36;29.21;93245.78;5026212;28;19921;-56
2021/12/06 12:14:57;;;;;;;;;;;;;;;20.26;30.68;93230.34;5031288;28;19924;-57
2021/12/06 12:17:25;;;;;;;;;;;;;;;20.30;30.65;93231.16;5029204;28;19913;-54
2021/12/06 12:19:53;;;;;;;;;;;;;;;21.10;29.50;93224.88;5018641;28;19925;-55
2021/12/06 12:22:21;;;;;;;;;;;;;;;20.61;30.32;93215.72;5016066;28;19924;-58
2021/12/06 12:24:52;;;;;;;;;;;;;;;21.28;29.06;93214.25;5030110;28;19917;-49
2021/12/06 12:27:26;;;;;;;;;;;;;;;21.91;28.20;93224.03;5035299;28;19920;-54
2021/12/06 12:29:55;;;;;;;;;;;;;;;22.51;27.37;93220.41;5016695;28;19921;-53
2021/12/06 12:32:22;;;;;;;;;;;;;;;21.60;28.91;93224.84;5015698;28;19924;-54
2021/12/06 12:34:50;;;;;;;;;;;;;;;21.41;29.30;93239.31;5030537;28;19920;-57
2021/12/06 12:37:18;;;;;;;;;;;;;;;21.02;30.52;93233.97;5022796;28;20288;-54
2021/12/06 12:39:58;;;;;;;;;;;;;;;20.67;30.73;93234.69;5017425;28;19917;-55
2021/12/06 12:42:25;;;;;;;;;;;;;;;20.52;31.04;93228.56;5015294;28;19913;-56
2021/12/06 12:44:52;;;;;;;;;;;;;;;20.37;31.68;93224.34;5029714;28;19920;-55
2021/12/06 12:47:21;;;;;;;;;;;;;;;20.63;30.41;93234.69;5030876;28;19916;-56
2021/12/06 12:49:49;;;;;;;;;;;;;;;21.37;28.95;93236.66;5035245;28;19913;-56
2021/12/06 12:52:19;;;;;;;;;;;;;;;22.24;28.13;93230.78;5016249;28;20398;-58
2021/12/06 12:54:53;;;;;;;;;;;;;;;22.58;26.86;93239.00;5014630;28;19913;-53
2021/12/06 12:57:20;;;;;;;;;;;;;;;22.58;27.45;93244.31;5029382;28;19917;-54
2021/12/06 12:59:51;;;;;;;;;;;;;;;23.73;25.54;93223.75;5029696;28;19921;-58
2021/12/06 13:02:29;;;;;;;;;;;;;;;21.64;29.12;93238.94;5014599;28;19913;-57
2021/12/06 13:04:59;;;;;;;;;;;;;;;23.99;25.62;93241.03;5019129;28;19913;-54
2021/12/06 13:07:31;;;;;;;;;;;;;;;22.01;28.43;93239.22;5030946;28;19920;-54
2021/12/06 13:09:59;;;;;;;;;;;;;;;20.67;31.15;93224.81;5030704;28;19925;-57
2021/12/06 13:12:31;;;;;;;;;;;;;;;20.47;32.21;93227.03;5014002;28;19917;-57